Time;durP1;ratioP1;P1;durP2;ratioP2;P2;SDS_P1;SDS_P2;PMS_P1;PMS_P2;Temp;Humidity;BMP_temperature;BMP_pressure;BME280_temperature;BME280_humidity;BME280_pressure;Samples;Min_cycle;Max_cycle;Signal;HPM_P1;HPM_P2
2022/12/07 00:01:14;;;;;;;95.57;89.07;;;;;;;;;;10129683;28;20049;-67
2022/12/07 00:06:11;;;;;;;95.10;88.55;;;;;;;;;;10120371;28;20051;-67
2022/12/07 00:11:09;;;;;;;101.03;94.43;;;;;;;;;;10128109;28;20069;-68
2022/12/07 00:16:08;;;;;;;102.35;95.75;;;;;;;;;;10111652;28;20122;-68
2022/12/07 00:21:05;;;;;;;100.55;94.15;;;;;;;;;;10111483;28;20522;-68
2022/12/07 00:26:06;;;;;;;103.13;96.18;;;;;;;;;;10104559;28;20046;-66
2022/12/07 00:31:04;;;;;;;94.68;88.38;;;;;;;;;;10118953;28;20127;-67
2022/12/07 00:36:03;;;;;;;99.97;93.13;;;;;;;;;;10110307;28;20057;-68
2022/12/07 00:41:07;;;;;;;98.35;91.95;;;;;;;;;;10106984;28;20053;-68
2022/12/07 00:46:04;;;;;;;97.65;91.28;;;;;;;;;;10120740;28;20042;-68
2022/12/07 00:51:00;;;;;;;96.57;90.22;;;;;;;;;;10128464;28;20081;-67
2022/12/07 00:55:57;;;;;;;97.07;90.35;;;;;;;;;;10124226;28;20073;-67
2022/12/07 01:00:53;;;;;;;101.78;94.78;;;;;;;;;;10126038;28;20042;-68
2022/12/07 01:05:53;;;;;;;99.28;92.60;;;;;;;;;;10122977;28;20054;-68
2022/12/07 01:10:49;;;;;;;102.20;95.40;;;;;;;;;;10127142;28;20074;-69
2022/12/07 01:15:46;;;;;;;102.18;95.57;;;;;;;;;;10122043;28;20058;-69
2022/12/07 01:20:42;;;;;;;94.55;88.15;;;;;;;;;;10124027;28;20047;-69
2022/12/07 01:25:38;;;;;;;98.85;92.38;;;;;;;;;;10123927;28;20046;-68
2022/12/07 01:30:34;;;;;;;98.60;92.20;;;;;;;;;;10130233;28;20054;-68
2022/12/07 01:35:33;;;;;;;101.43;94.63;;;;;;;;;;10126821;28;20126;-67
2022/12/07 01:40:29;;;;;;;96.63;90.53;;;;;;;;;;10126718;28;20040;-68
2022/12/07 01:45:38;;;;;;;98.03;91.82;;;;;;;;;;10125509;28;20053;-67
2022/12/07 01:50:35;;;;;;;100.40;93.57;;;;;;;;;;10127061;28;20129;-69
2022/12/07 01:55:31;;;;;;;100.75;94.25;;;;;;;;;;10118280;28;20049;-69
2022/12/07 02:00:28;;;;;;;98.10;91.38;;;;;;;;;;10137442;28;20050;-69
2022/12/07 02:05:25;;;;;;;99.13;92.85;;;;;;;;;;10105699;28;20054;-67
2022/12/07 02:10:25;;;;;;;100.60;94.22;;;;;;;;;;10121656;28;20518;-68
2022/12/07 02:15:24;;;;;;;98.22;91.72;;;;;;;;;;10109921;28;20575;-68
2022/12/07 02:20:36;;;;;;;97.70;91.55;;;;;;;;;;10119889;28;20053;-68
2022/12/07 02:25:42;;;;;;;98.05;91.85;;;;;;;;;;10116303;28;20414;-68
2022/12/07 02:30:42;;;;;;;99.45;93.20;;;;;;;;;;10122070;28;20563;-67
2022/12/07 02:35:38;;;;;;;103.30;96.97;;;;;;;;;;10125760;28;20051;-68
2022/12/07 02:40:52;;;;;;;104.70;97.88;;;;;;;;;;10113384;28;20042;-69
2022/12/07 02:45:50;;;;;;;99.28;93.13;;;;;;;;;;10113147;28;20057;-68
2022/12/07 02:50:51;;;;;;;101.40;95.13;;;;;;;;;;10126396;28;20176;-69
2022/12/07 02:55:47;;;;;;;99.40;93.30;;;;;;;;;;10123387;28;20051;-68
2022/12/07 03:01:07;;;;;;;103.45;97.15;;;;;;;;;;10123690;28;20043;-68
2022/12/07 03:06:10;;;;;;;97.03;91.47;;;;;;;;;;10101898;28;20522;-68
2022/12/07 03:11:08;;;;;;;97.88;92.18;;;;;;;;;;10114570;28;20138;-68
2022/12/07 03:16:04;;;;;;;97.40;91.85;;;;;;;;;;10125898;28;20127;-68
2022/12/07 03:21:04;;;;;;;100.30;94.53;;;;;;;;;;10116668;28;20558;-69
2022/12/07 03:26:02;;;;;;;98.85;92.78;;;;;;;;;;10126546;28;20045;-69
2022/12/07 03:31:04;;;;;;;100.07;93.90;;;;;;;;;;10113534;28;20045;-69
2022/12/07 03:36:04;;;;;;;100.55;94.50;;;;;;;;;;10109366;28;20125;-69
2022/12/07 03:41:14;;;;;;;102.80;96.80;;;;;;;;;;10111644;28;20038;-67
2022/12/07 03:46:29;;;;;;;101.05;95.53;;;;;;;;;;10118187;28;20400;-68
2022/12/07 03:51:31;;;;;;;101.18;95.72;;;;;;;;;;10117988;28;20053;-67
2022/12/07 03:56:28;;;;;;;101.43;95.82;;;;;;;;;;10121409;28;20129;-68
2022/12/07 04:01:25;;;;;;;93.82;88.53;;;;;;;;;;10121689;28;20141;-67
2022/12/07 04:06:21;;;;;;;93.47;88.07;;;;;;;;;;10121123;28;20487;-68
2022/12/07 04:11:17;;;;;;;88.75;83.80;;;;;;;;;;10121036;28;20161;-68
2022/12/07 04:16:14;;;;;;;96.85;91.53;;;;;;;;;;10102871;28;20047;-69
2022/12/07 04:21:10;;;;;;;92.25;86.95;;;;;;;;;;10093918;28;20039;-69
2022/12/07 04:26:07;;;;;;;89.47;84.40;;;;;;;;;;10098638;28;20486;-69
2022/12/07 04:31:03;;;;;;;83.90;78.95;;;;;;;;;;10102990;28;20473;-66
2022/12/07 04:35:59;;;;;;;90.80;85.50;;;;;;;;;;10092594;28;20040;-68
2022/12/07 04:40:56;;;;;;;89.70;84.32;;;;;;;;;;10097328;28;20038;-68
2022/12/07 04:45:52;;;;;;;90.63;85.32;;;;;;;;;;10119465;28;20394;-68
2022/12/07 04:50:51;;;;;;;91.05;85.63;;;;;;;;;;10102113;28;20130;-68
2022/12/07 04:55:47;;;;;;;98.03;92.32;;;;;;;;;;10114434;28;20126;-68
2022/12/07 05:00:44;;;;;;;95.20;89.40;;;;;;;;;;10095010;28;20145;-68
2022/12/07 05:05:41;;;;;;;96.22;90.35;;;;;;;;;;10094232;28;20055;-67
2022/12/07 05:10:38;;;;;;;99.85;93.63;;;;;;;;;;10093860;28;20055;-67
2022/12/07 05:15:34;;;;;;;100.22;94.10;;;;;;;;;;10096418;28;20895;-67
2022/12/07 05:20:30;;;;;;;104.68;98.28;;;;;;;;;;10085705;28;20047;-67
2022/12/07 05:25:27;;;;;;;102.57;96.40;;;;;;;;;;10097538;28;20047;-67
2022/12/07 05:30:24;;;;;;;102.00;95.75;;;;;;;;;;10097530;28;20507;-67
2022/12/07 05:35:21;;;;;;;99.15;92.53;;;;;;;;;;10117697;28;20047;-67
2022/12/07 05:40:18;;;;;;;97.05;91.40;;;;;;;;;;10097435;28;20059;-67
2022/12/07 05:45:15;;;;;;;98.03;92.20;;;;;;;;;;10107274;28;20764;-69
2022/12/07 05:50:11;;;;;;;102.30;96.35;;;;;;;;;;10097957;28;20134;-68
2022/12/07 05:55:08;;;;;;;104.78;98.47;;;;;;;;;;10106774;28;20071;-68
2022/12/07 06:00:04;;;;;;;100.10;94.40;;;;;;;;;;10106448;28;20078;-67
2022/12/07 06:05:02;;;;;;;101.10;94.20;;;;;;;;;;10107915;28;20527;-68
2022/12/07 06:09:58;;;;;;;96.88;91.18;;;;;;;;;;10111724;28;20046;-67
2022/12/07 06:14:55;;;;;;;97.95;92.13;;;;;;;;;;10101553;28;20070;-67
2022/12/07 06:19:52;;;;;;;90.35;84.95;;;;;;;;;;10111094;28;20049;-67
2022/12/07 06:24:48;;;;;;;98.55;93.00;;;;;;;;;;10112467;28;20034;-67
2022/12/07 06:29:44;;;;;;;90.88;85.72;;;;;;;;;;10114528;28;20047;-67
2022/12/07 06:34:41;;;;;;;92.65;87.25;;;;;;;;;;10110053;28;20054;-67
2022/12/07 06:39:38;;;;;;;94.18;88.88;;;;;;;;;;10114509;28;20055;-68
2022/12/07 06:44:34;;;;;;;98.25;92.40;;;;;;;;;;10117205;28;20055;-68
2022/12/07 06:49:30;;;;;;;99.22;93.80;;;;;;;;;;10117259;28;20506;-67
2022/12/07 06:54:27;;;;;;;96.38;90.95;;;;;;;;;;10103069;28;20137;-66
2022/12/07 06:59:23;;;;;;;92.55;86.93;;;;;;;;;;10119937;28;20042;-66
2022/12/07 07:04:19;;;;;;;85.75;80.85;;;;;;;;;;10097223;28;20058;-67
2022/12/07 07:09:16;;;;;;;81.97;76.80;;;;;;;;;;10096704;28;20069;-66
2022/12/07 07:14:12;;;;;;;79.97;75.57;;;;;;;;;;10107954;28;20814;-65
2022/12/07 07:19:08;;;;;;;83.13;77.75;;;;;;;;;;10106958;28;20057;-66
2022/12/07 07:24:05;;;;;;;77.93;73.38;;;;;;;;;;10102764;28;20053;-66
2022/12/07 07:29:01;;;;;;;79.78;75.03;;;;;;;;;;10093590;28;20051;-66
2022/12/07 07:33:58;;;;;;;71.22;67.10;;;;;;;;;;10099779;28;20050;-65
2022/12/07 07:38:54;;;;;;;72.85;68.85;;;;;;;;;;10104440;28;20471;-66
2022/12/07 07:43:50;;;;;;;70.55;66.35;;;;;;;;;;10091701;28;20047;-67
2022/12/07 07:48:47;;;;;;;69.50;65.53;;;;;;;;;;10087815;28;20046;-65
2022/12/07 07:53:43;;;;;;;70.43;66.25;;;;;;;;;;10087123;28;20566;-65
2022/12/07 07:58:39;;;;;;;69.50;65.55;;;;;;;;;;10087611;28;20446;-66
2022/12/07 08:03:36;;;;;;;68.10;64.10;;;;;;;;;;10090286;28;20043;-65
2022/12/07 08:08:32;;;;;;;69.68;65.78;;;;;;;;;;10106045;28;20038;-66
2022/12/07 08:13:29;;;;;;;68.63;64.80;;;;;;;;;;10087557;28;20054;-66
2022/12/07 08:18:27;;;;;;;67.03;63.30;;;;;;;;;;10103111;28;20663;-66
2022/12/07 08:23:23;;;;;;;66.55;62.70;;;;;;;;;;10117866;28;20066;-66
2022/12/07 08:28:32;;;;;;;60.72;56.95;;;;;;;;;;10116290;28;20551;-66
2022/12/07 08:33:28;;;;;;;58.40;55.03;;;;;;;;;;10113590;28;20511;-66
2022/12/07 08:38:25;;;;;;;53.28;50.47;;;;;;;;;;10107686;28;20054;-65
2022/12/07 08:43:27;;;;;;;50.93;47.87;;;;;;;;;;10115552;28;20066;-65
2022/12/07 08:48:24;;;;;;;43.90;41.22;;;;;;;;;;10107974;28;20499;-66
2022/12/07 08:53:21;;;;;;;42.35;39.50;;;;;;;;;;10115541;28;20134;-66
2022/12/07 08:58:17;;;;;;;41.80;39.30;;;;;;;;;;10113912;28;20465;-65
2022/12/07 09:03:13;;;;;;;37.80;34.95;;;;;;;;;;10115479;28;20051;-64
2022/12/07 09:08:10;;;;;;;37.50;35.00;;;;;;;;;;10123123;28;20039;-64
2022/12/07 09:13:07;;;;;;;36.50;34.33;;;;;;;;;;10115121;28;20110;-65
2022/12/07 09:18:04;;;;;;;36.42;34.10;;;;;;;;;;10107947;28;20073;-66
2022/12/07 09:23:00;;;;;;;36.97;34.67;;;;;;;;;;10117300;28;20043;-66
2022/12/07 09:27:57;;;;;;;37.38;35.05;;;;;;;;;;10106932;28;20071;-66
2022/12/07 09:32:54;;;;;;;35.92;33.80;;;;;;;;;;10115217;28;20846;-66
2022/12/07 09:37:50;;;;;;;34.63;32.15;;;;;;;;;;10113317;28;20066;-66
2022/12/07 09:42:48;;;;;;;30.23;28.08;;;;;;;;;;10092025;28;20051;-66
2022/12/07 09:47:45;;;;;;;29.95;27.92;;;;;;;;;;10086942;28;20048;-66
2022/12/07 09:52:41;;;;;;;29.65;27.55;;;;;;;;;;10097444;28;20063;-70
2022/12/07 09:57:38;;;;;;;27.35;25.48;;;;;;;;;;10094735;28;20142;-68
2022/12/07 10:02:38;;;;;;;26.13;24.23;;;;;;;;;;10110138;28;20039;-69
2022/12/07 10:07:34;;;;;;;22.60;21.00;;;;;;;;;;10105806;28;20459;-69
2022/12/07 10:12:32;;;;;;;23.38;21.17;;;;;;;;;;10112218;28;20177;-69
2022/12/07 10:17:30;;;;;;;22.00;20.40;;;;;;;;;;10098723;28;20047;-65
2022/12/07 10:22:27;;;;;;;22.42;20.42;;;;;;;;;;10108755;28;20179;-70
2022/12/07 10:27:31;;;;;;;21.85;20.15;;;;;;;;;;10107763;28;20528;-70
2022/12/07 10:32:30;;;;;;;20.48;19.00;;;;;;;;;;10105387;28;20073;-69
2022/12/07 10:37:27;;;;;;;21.20;19.30;;;;;;;;;;10095656;28;20146;-70
2022/12/07 10:42:25;;;;;;;20.10;18.35;;;;;;;;;;10108279;28;20042;-70
2022/12/07 10:47:42;;;;;;;20.73;18.92;;;;;;;;;;10100836;28;20463;-64
2022/12/07 10:53:03;;;;;;;20.58;18.95;;;;;;;;;;10105050;28;20046;-66
2022/12/07 10:58:06;;;;;;;19.90;18.40;;;;;;;;;;10075345;28;20067;-66
2022/12/07 11:03:21;;;;;;;18.77;17.20;;;;;;;;;;10115713;28;20039;-66
2022/12/07 11:08:36;;;;;;;18.80;17.13;;;;;;;;;;10095063;28;20054;-66
2022/12/07 11:13:48;;;;;;;16.63;15.32;;;;;;;;;;10088616;28;20039;-64
2022/12/07 11:18:56;;;;;;;16.50;15.23;;;;;;;;;;10108084;28;20054;-64
2022/12/07 11:24:03;;;;;;;16.35;14.80;;;;;;;;;;10108687;28;20053;-65
2022/12/07 11:28:59;;;;;;;16.38;15.18;;;;;;;;;;10108154;28;20537;-66
2022/12/07 11:34:00;;;;;;;14.20;12.82;;;;;;;;;;10103060;28;20430;-65
2022/12/07 11:38:59;;;;;;;15.25;13.70;;;;;;;;;;10108734;28;20054;-67
2022/12/07 11:43:59;;;;;;;14.68;13.27;;;;;;;;;;10087773;28;20589;-65
2022/12/07 11:49:01;;;;;;;15.80;13.88;;;;;;;;;;10089288;28;20126;-66
2022/12/07 11:54:01;;;;;;;13.38;12.20;;;;;;;;;;10094560;28;20051;-65
2022/12/07 11:59:03;;;;;;;13.55;12.32;;;;;;;;;;10100825;28;20576;-64
2022/12/07 12:04:07;;;;;;;13.20;11.80;;;;;;;;;;10094721;28;20039;-64
2022/12/07 12:09:17;;;;;;;12.20;11.30;;;;;;;;;;10089402;28;20073;-65
2022/12/07 12:14:36;;;;;;;11.07;9.98;;;;;;;;;;10092882;28;20049;-66
2022/12/07 12:19:37;;;;;;;14.25;9.30;;;;;;;;;;10103419;28;20154;-64
2022/12/07 12:24:37;;;;;;;9.75;8.70;;;;;;;;;;10087410;28;20050;-65
2022/12/07 12:29:35;;;;;;;10.57;8.05;;;;;;;;;;10089746;28;20134;-66
2022/12/07 12:34:41;;;;;;;10.35;8.05;;;;;;;;;;10092798;28;20051;-67
2022/12/07 12:40:05;;;;;;;17.70;8.50;;;;;;;;;;10096690;28;20550;-65
2022/12/07 12:45:03;;;;;;;13.82;9.00;;;;;;;;;;10083592;28;20074;-68
2022/12/07 12:50:15;;;;;;;9.52;8.00;;;;;;;;;;10102921;28;20046;-67
2022/12/07 12:55:14;;;;;;;11.63;7.93;;;;;;;;;;10095747;28;20078;-66
2022/12/07 13:00:21;;;;;;;11.52;7.80;;;;;;;;;;10095057;28;20074;-66
2022/12/07 13:05:21;;;;;;;12.18;7.40;;;;;;;;;;10095468;28;20049;-66
2022/12/07 13:10:24;;;;;;;14.95;7.63;;;;;;;;;;10093674;28;20073;-66
2022/12/07 13:15:38;;;;;;;10.85;7.20;;;;;;;;;;10093311;28;20043;-67
2022/12/07 13:20:45;;;;;;;12.13;7.43;;;;;;;;;;10107974;28;20482;-66
2022/12/07 13:26:11;;;;;;;10.27;7.32;;;;;;;;;;10092303;28;20059;-66
2022/12/07 13:31:15;;;;;;;11.98;8.77;;;;;;;;;;10099018;28;20398;-67
2022/12/07 13:36:41;;;;;;;10.43;7.80;;;;;;;;;;10098524;28;20046;-66
2022/12/07 13:41:41;;;;;;;8.63;7.70;;;;;;;;;;10089094;28;20054;-66
2022/12/07 13:46:42;;;;;;;9.05;7.60;;;;;;;;;;10098565;28;20150;-66
2022/12/07 13:51:39;;;;;;;12.55;7.85;;;;;;;;;;10095793;28;20047;-66
2022/12/07 13:56:35;;;;;;;11.43;8.13;;;;;;;;;;10089244;28;20135;-66
2022/12/07 14:01:32;;;;;;;10.77;8.10;;;;;;;;;;10092180;28;20138;-66
2022/12/07 14:06:28;;;;;;;9.68;7.05;;;;;;;;;;10106696;28;20047;-66
2022/12/07 14:11:29;;;;;;;10.10;8.57;;;;;;;;;;10111394;28;20057;-67
2022/12/07 14:16:30;;;;;;;11.60;9.38;;;;;;;;;;10082654;28;20039;-67
2022/12/07 14:21:27;;;;;;;11.23;7.40;;;;;;;;;;10085586;28;20129;-67
2022/12/07 14:26:24;;;;;;;8.60;7.75;;;;;;;;;;10090494;28;20050;-67
2022/12/07 14:31:23;;;;;;;8.70;7.45;;;;;;;;;;10093035;28;20517;-67
2022/12/07 14:36:26;;;;;;;10.77;7.85;;;;;;;;;;10090989;28;20050;-67
2022/12/07 14:46:37;;;;;;;10.93;8.10;;;;;;;;;;10106242;28;20059;-67
2022/12/07 14:51:35;;;;;;;8.38;7.43;;;;;;;;;;10089566;28;20576;-66
2022/12/07 14:56:52;;;;;;;9.38;8.32;;;;;;;;;;10089072;28;20108;-67
2022/12/07 15:01:48;;;;;;;9.63;7.55;;;;;;;;;;10103880;28;20126;-66
2022/12/07 15:06:55;;;;;;;10.52;7.82;;;;;;;;;;10080163;28;20054;-66
2022/12/07 15:11:51;;;;;;;9.02;7.65;;;;;;;;;;10094505;28;20065;-67
2022/12/07 15:16:47;;;;;;;9.15;8.32;;;;;;;;;;10107159;28;20141;-66
2022/12/07 15:22:04;;;;;;;7.85;7.22;;;;;;;;;;10097558;28;20039;-67
2022/12/07 15:27:00;;;;;;;9.90;8.90;;;;;;;;;;10088066;28;20058;-67
2022/12/07 15:31:57;;;;;;;12.95;8.63;;;;;;;;;;10100093;28;20493;-67
2022/12/07 15:36:54;;;;;;;11.70;8.77;;;;;;;;;;10105250;28;20074;-67
2022/12/07 15:41:50;;;;;;;9.05;8.25;;;;;;;;;;10099948;28;20050;-66
2022/12/07 15:46:47;;;;;;;8.50;7.72;;;;;;;;;;10098309;28;20541;-66
2022/12/07 15:51:44;;;;;;;9.43;8.43;;;;;;;;;;10103900;28;20054;-66
2022/12/07 15:56:40;;;;;;;8.52;7.90;;;;;;;;;;10093560;28;20049;-66
2022/12/07 16:01:36;;;;;;;10.30;8.48;;;;;;;;;;10103744;28;20049;-66
2022/12/07 16:06:32;;;;;;;10.25;8.45;;;;;;;;;;10104668;28;20085;-66
2022/12/07 16:11:29;;;;;;;9.27;8.45;;;;;;;;;;10099797;28;20046;-66
2022/12/07 16:16:25;;;;;;;9.38;8.40;;;;;;;;;;10101501;28;20117;-66
2022/12/07 16:21:22;;;;;;;12.18;8.40;;;;;;;;;;10092542;28;20054;-66
2022/12/07 16:26:21;;;;;;;10.63;9.50;;;;;;;;;;10091964;28;20062;-65
2022/12/07 16:31:19;;;;;;;9.32;7.80;;;;;;;;;;10080582;28;20049;-66
2022/12/07 16:36:16;;;;;;;11.32;10.20;;;;;;;;;;10078262;28;20098;-66
2022/12/07 16:41:32;;;;;;;11.07;9.77;;;;;;;;;;10096378;28;20053;-66
2022/12/07 16:46:28;;;;;;;10.18;9.23;;;;;;;;;;10087849;28;20047;-65
2022/12/07 16:51:26;;;;;;;16.48;8.70;;;;;;;;;;10092886;28;20050;-66
2022/12/07 16:56:23;;;;;;;8.60;7.90;;;;;;;;;;10093820;28;20694;-64
2022/12/07 17:01:22;;;;;;;9.55;8.75;;;;;;;;;;10096919;28;20077;-64
2022/12/07 17:06:22;;;;;;;10.82;9.27;;;;;;;;;;10085982;28;20081;-65
2022/12/07 17:11:21;;;;;;;10.55;9.65;;;;;;;;;;10084769;28;20090;-65
2022/12/07 17:16:17;;;;;;;10.18;9.15;;;;;;;;;;10082843;28;20042;-65
2022/12/07 17:21:13;;;;;;;11.27;10.15;;;;;;;;;;10081628;28;20208;-66
2022/12/07 17:26:15;;;;;;;12.15;10.73;;;;;;;;;;10096489;28;20042;-66
2022/12/07 17:31:12;;;;;;;11.40;10.23;;;;;;;;;;10093798;28;20065;-65
2022/12/07 17:36:09;;;;;;;10.52;9.10;;;;;;;;;;10101492;28;20066;-64
2022/12/07 17:41:10;;;;;;;12.80;9.35;;;;;;;;;;10102455;28;20043;-65
2022/12/07 17:46:07;;;;;;;11.40;9.70;;;;;;;;;;10091830;28;20043;-65
2022/12/07 17:56:18;;;;;;;12.40;9.48;;;;;;;;;;10089292;28;20125;-65
2022/12/07 18:01:24;;;;;;;10.73;9.60;;;;;;;;;;10094928;28;20141;-65
2022/12/07 18:06:28;;;;;;;12.85;10.40;;;;;;;;;;10083003;28;20651;-65
2022/12/07 18:11:25;;;;;;;11.00;9.93;;;;;;;;;;10110213;28;20050;-64
2022/12/07 18:16:23;;;;;;;11.07;9.88;;;;;;;;;;10104798;28;20047;-65
2022/12/07 18:21:21;;;;;;;12.40;11.10;;;;;;;;;;10097418;28;20044;-65
2022/12/07 18:26:18;;;;;;;11.90;10.80;;;;;;;;;;10103275;28;20078;-65
2022/12/07 18:31:14;;;;;;;16.35;10.80;;;;;;;;;;10108729;28;20043;-64
2022/12/07 18:36:12;;;;;;;12.05;10.45;;;;;;;;;;10113361;28;20097;-65
2022/12/07 18:41:10;;;;;;;12.38;11.30;;;;;;;;;;10124954;28;20516;-65
2022/12/07 18:46:24;;;;;;;14.82;11.55;;;;;;;;;;10123740;28;20039;-65
2022/12/07 18:51:20;;;;;;;12.75;11.57;;;;;;;;;;10118915;28;20190;-65
2022/12/07 18:56:20;;;;;;;13.10;11.80;;;;;;;;;;10112627;28;20130;-65
2022/12/07 19:01:16;;;;;;;14.75;12.52;;;;;;;;;;10112078;28;20140;-64
2022/12/07 19:06:13;;;;;;;13.93;12.48;;;;;;;;;;10102474;28;20050;-65
2022/12/07 19:16:33;;;;;;;14.25;12.75;;;;;;;;;;10110636;28;20077;-65
2022/12/07 19:21:30;;;;;;;18.73;13.82;;;;;;;;;;10105075;28;20146;-65
2022/12/07 19:26:26;;;;;;;16.38;14.77;;;;;;;;;;10098400;28;20051;-65
2022/12/07 19:31:23;;;;;;;14.60;13.13;;;;;;;;;;10109454;28;20068;-65
2022/12/07 19:36:19;;;;;;;15.38;13.60;;;;;;;;;;10098347;28;20117;-64
2022/12/07 19:41:34;;;;;;;16.08;14.45;;;;;;;;;;10082109;28;20046;-65
2022/12/07 19:46:31;;;;;;;15.63;14.05;;;;;;;;;;10107828;28;20058;-63
2022/12/07 19:51:28;;;;;;;16.65;14.88;;;;;;;;;;10110683;28;20407;-64
2022/12/07 19:56:25;;;;;;;16.88;15.20;;;;;;;;;;10096934;28;20108;-65
2022/12/07 20:01:21;;;;;;;18.50;17.00;;;;;;;;;;10107362;28;20042;-65
2022/12/07 20:06:18;;;;;;;19.88;17.98;;;;;;;;;;10118185;28;20050;-65
2022/12/07 20:16:30;;;;;;;22.45;20.63;;;;;;;;;;10104545;28;20129;-65
2022/12/07 20:21:27;;;;;;;24.30;22.40;;;;;;;;;;10109384;28;20119;-65
2022/12/07 20:26:23;;;;;;;24.63;22.48;;;;;;;;;;10109892;28;20078;-65
2022/12/07 20:31:20;;;;;;;25.00;22.45;;;;;;;;;;10107032;28;20057;-65
2022/12/07 20:36:16;;;;;;;25.27;23.27;;;;;;;;;;10114605;28;20038;-64
2022/12/07 20:46:27;;;;;;;28.27;25.73;;;;;;;;;;10097943;28;20058;-65
2022/12/07 20:51:24;;;;;;;27.55;25.55;;;;;;;;;;10104002;28;20042;-65
2022/12/07 20:56:26;;;;;;;28.05;25.95;;;;;;;;;;10104522;28;20043;-65
2022/12/07 21:01:22;;;;;;;27.00;25.13;;;;;;;;;;10100705;28;20133;-65
2022/12/07 21:06:19;;;;;;;27.70;25.40;;;;;;;;;;10100257;28;20522;-65
2022/12/07 21:11:17;;;;;;;28.58;26.40;;;;;;;;;;10098553;28;20522;-65
2022/12/07 21:16:14;;;;;;;26.88;24.70;;;;;;;;;;10088110;28;20047;-65
2022/12/07 21:21:10;;;;;;;27.52;25.58;;;;;;;;;;10101216;28;20050;-65
2022/12/07 21:26:08;;;;;;;27.98;25.90;;;;;;;;;;10111688;28;20053;-65
2022/12/07 21:31:04;;;;;;;28.45;26.25;;;;;;;;;;10104171;28;20050;-66
2022/12/07 21:36:10;;;;;;;27.80;26.00;;;;;;;;;;10084897;28;20054;-68
2022/12/07 21:41:25;;;;;;;26.25;24.27;;;;;;;;;;10096995;28;20059;-68
2022/12/07 21:46:22;;;;;;;27.13;25.48;;;;;;;;;;10095899;28;20068;-68
2022/12/07 21:51:27;;;;;;;28.05;26.20;;;;;;;;;;10099518;28;20047;-68
2022/12/07 21:56:27;;;;;;;31.10;28.92;;;;;;;;;;10094444;28;20052;-68
2022/12/07 22:01:25;;;;;;;29.88;27.67;;;;;;;;;;10086003;28;20101;-68
2022/12/07 22:06:23;;;;;;;28.38;26.58;;;;;;;;;;10096099;28;20074;-68
2022/12/07 22:11:19;;;;;;;33.08;30.30;;;;;;;;;;10102104;28;20690;-68
2022/12/07 22:16:15;;;;;;;32.63;30.20;;;;;;;;;;10106310;28;20053;-68
2022/12/07 22:21:12;;;;;;;33.92;31.30;;;;;;;;;;10124865;28;20096;-67
2022/12/07 22:26:09;;;;;;;34.25;31.90;;;;;;;;;;10119764;28;20046;-67
2022/12/07 22:31:07;;;;;;;36.03;33.40;;;;;;;;;;10126356;28;20155;-67
2022/12/07 22:36:04;;;;;;;38.22;35.72;;;;;;;;;;10123106;28;20133;-68
2022/12/07 22:41:07;;;;;;;39.90;37.00;;;;;;;;;;10108162;28;20049;-68
2022/12/07 22:46:04;;;;;;;39.40;36.75;;;;;;;;;;10110516;28;20764;-66
2022/12/07 22:51:00;;;;;;;38.45;35.95;;;;;;;;;;10110597;28;20047;-68
2022/12/07 22:55:56;;;;;;;40.03;37.15;;;;;;;;;;10119975;28;20052;-67
2022/12/07 23:00:53;;;;;;;39.63;36.92;;;;;;;;;;10117494;28;20046;-67
2022/12/07 23:05:49;;;;;;;42.50;39.45;;;;;;;;;;10111934;28;20053;-67
2022/12/07 23:10:47;;;;;;;46.03;42.63;;;;;;;;;;10115804;28;20129;-68
2022/12/07 23:15:43;;;;;;;45.60;42.50;;;;;;;;;;10113709;28;20055;-66
2022/12/07 23:20:39;;;;;;;48.25;44.67;;;;;;;;;;10125314;28;20051;-66
2022/12/07 23:25:35;;;;;;;46.88;43.67;;;;;;;;;;10112275;28;20042;-68
2022/12/07 23:30:32;;;;;;;51.05;47.47;;;;;;;;;;10115790;28;20541;-67
2022/12/07 23:35:28;;;;;;;51.50;48.00;;;;;;;;;;10130284;28;20090;-68
2022/12/07 23:40:24;;;;;;;54.95;51.05;;;;;;;;;;10115779;28;20042;-68
2022/12/07 23:45:20;;;;;;;54.88;50.88;;;;;;;;;;10112582;28;20046;-68
2022/12/07 23:50:17;;;;;;;54.30;50.33;;;;;;;;;;10113768;28;20076;-68
2022/12/07 23:55:13;;;;;;;55.92;51.78;;;;;;;;;;10101475;28;20061;-69
